createdAt,value
2022-08-18T00:02:17.108Z,13.70
2022-08-18T00:04:49.032Z,14.10
2022-08-18T00:07:24.504Z,13.80
2022-08-18T00:09:52.718Z,13.80
2022-08-18T00:12:31.535Z,13.80
2022-08-18T00:15:05.321Z,13.70
2022-08-18T00:17:34.781Z,14.40
2022-08-18T00:20:05.279Z,13.60
2022-08-18T00:22:33.308Z,13.00
2022-08-18T00:25:01.836Z,13.50
2022-08-18T00:27:31.237Z,14.10
2022-08-18T00:30:03.909Z,14.10
2022-08-18T00:32:37.639Z,12.90
2022-08-18T00:35:13.797Z,13.00
2022-08-18T00:37:43.087Z,14.50
2022-08-18T00:40:16.463Z,12.80
2022-08-18T00:42:48.843Z,12.70
2022-08-18T00:45:20.641Z,13.90
2022-08-18T00:47:48.389Z,13.20
2022-08-18T00:50:21.475Z,13.60
2022-08-18T00:52:56.013Z,13.20
2022-08-18T00:55:25.184Z,12.90
2022-08-18T00:57:57.638Z,12.90
2022-08-18T01:00:25.519Z,12.40
2022-08-18T01:02:57.087Z,13.50
2022-08-18T01:05:50.664Z,13.30
2022-08-18T01:08:18.708Z,13.70
2022-08-18T01:10:59.283Z,14.00
2022-08-18T01:13:29.599Z,13.80
2022-08-18T01:15:57.800Z,12.80
2022-08-18T01:18:44.258Z,13.60
2022-08-18T01:21:43.435Z,14.10
2022-08-18T01:24:13.078Z,13.10
2022-08-18T01:26:46.468Z,11.80
2022-08-18T01:29:18.894Z,12.90
2022-08-18T01:31:56.868Z,13.90
2022-08-18T01:34:28.567Z,13.00
2022-08-18T01:36:57.443Z,13.80
2022-08-18T01:41:22.151Z,12.40
2022-08-18T01:42:17.413Z,13.60
2022-08-18T01:44:48.623Z,14.20
2022-08-18T01:47:18.431Z,13.40
2022-08-18T01:49:46.503Z,13.40
2022-08-18T01:52:22.379Z,13.70
2022-08-18T01:54:53.389Z,14.20
2022-08-18T01:57:21.904Z,13.60
2022-08-18T01:59:49.856Z,12.90
2022-08-18T02:02:24.599Z,13.70
2022-08-18T02:04:56.890Z,14.10
2022-08-18T02:07:27.324Z,13.40
2022-08-18T02:10:07.300Z,13.50
2022-08-18T02:12:41.652Z,13.80
2022-08-18T02:15:10.197Z,14.60
2022-08-18T02:17:44.243Z,14.40
2022-08-18T02:20:15.634Z,13.60
2022-08-18T02:22:45.121Z,13.80
2022-08-18T02:25:14.617Z,14.00
2022-08-18T02:27:43.130Z,14.80
2022-08-18T02:30:15.235Z,13.90
2022-08-18T02:32:43.291Z,13.20
2022-08-18T02:35:12.381Z,13.70
2022-08-18T02:37:42.566Z,13.40
2022-08-18T02:40:14.731Z,14.70
2022-08-18T02:42:46.036Z,13.60
2022-08-18T02:45:14.935Z,13.50
2022-08-18T02:47:47.158Z,13.50
2022-08-18T02:50:16.899Z,14.40
2022-08-18T02:52:44.697Z,14.20
2022-08-18T02:55:12.770Z,13.70
2022-08-18T02:57:45.931Z,12.90
2022-08-18T03:00:16.585Z,13.70
2022-08-18T03:02:48.693Z,13.90
2022-08-18T03:05:16.643Z,13.90
2022-08-18T03:07:45.608Z,12.80
2022-08-18T03:10:33.285Z,14.10
2022-08-18T03:13:02.417Z,14.10
2022-08-18T03:15:30.266Z,13.50
2022-08-18T03:17:58.314Z,13.80
2022-08-18T03:20:30.148Z,13.40
2022-08-18T03:23:05.664Z,14.30
2022-08-18T03:25:45.300Z,14.70
2022-08-18T03:28:14.334Z,14.10
2022-08-18T03:30:43.523Z,13.70
2022-08-18T03:33:11.380Z,13.80
2022-08-18T03:35:39.444Z,14.80
2022-08-18T03:38:07.412Z,14.50
2022-08-18T03:40:35.483Z,14.00
2022-08-18T03:43:50.338Z,14.80
2022-08-18T03:45:55.755Z,14.50
2022-08-18T03:48:23.529Z,14.70
2022-08-18T03:50:51.351Z,15.00
2022-08-18T03:53:19.636Z,14.60
2022-08-18T03:55:47.401Z,14.30
2022-08-18T03:58:25.060Z,14.40
2022-08-18T04:00:52.907Z,15.00
2022-08-18T04:03:20.813Z,15.20
2022-08-18T04:05:48.525Z,14.40
2022-08-18T04:08:16.395Z,14.50
2022-08-18T04:10:44.711Z,14.50
2022-08-18T04:13:12.428Z,14.60
2022-08-18T04:15:40.136Z,15.10
2022-08-18T04:18:09.089Z,14.90
2022-08-18T04:20:37.373Z,14.30
2022-08-18T04:23:05.855Z,14.50
2022-08-18T04:25:33.638Z,16.10
2022-08-18T04:28:03.560Z,15.50
2022-08-18T04:30:31.636Z,14.10
2022-08-18T04:33:01.435Z,14.40
2022-08-18T04:35:30.779Z,16.50
2022-08-18T04:37:58.495Z,16.60
2022-08-18T04:40:27.251Z,15.70
2022-08-18T04:42:55.335Z,15.50
2022-08-18T04:45:23.107Z,14.80
2022-08-18T04:47:51.417Z,17.30
2022-08-18T04:50:19.923Z,16.60
2022-08-18T04:53:06.680Z,17.40
2022-08-18T04:55:34.592Z,16.20
2022-08-18T04:58:02.351Z,17.50
2022-08-18T05:00:30.064Z,17.50
2022-08-18T05:02:57.985Z,17.30
2022-08-18T05:05:27.589Z,17.50
2022-08-18T05:07:55.393Z,17.00
2022-08-18T05:10:23.248Z,17.40
2022-08-18T05:12:51.003Z,17.60
2022-08-18T05:15:19.305Z,16.80
2022-08-18T05:17:48.120Z,18.80
2022-08-18T05:20:19.298Z,18.80
2022-08-18T05:22:47.455Z,19.00
2022-08-18T05:28:01.699Z,18.80
2022-08-18T05:30:29.494Z,19.70
2022-08-18T05:32:59.179Z,19.00
2022-08-18T05:35:33.882Z,19.50
2022-08-18T05:38:18.365Z,18.60
2022-08-18T05:40:56.323Z,18.50
2022-08-18T05:43:24.654Z,45.40
2022-08-18T05:45:54.636Z,19.10
2022-08-18T05:48:22.498Z,17.30
2022-08-18T05:50:51.319Z,16.90
2022-08-18T05:53:20.754Z,17.80
2022-08-18T05:56:28.651Z,18.20
2022-08-18T05:58:57.555Z,17.40
2022-08-18T06:01:38.722Z,16.50
2022-08-18T06:04:13.986Z,18.00
2022-08-18T06:06:47.480Z,18.50
2022-08-18T06:09:37.443Z,17.10
2022-08-18T06:12:19.131Z,17.60
2022-08-18T06:14:47.067Z,16.50
2022-08-18T06:17:23.933Z,17.10
2022-08-18T06:20:31.652Z,17.40
2022-08-18T06:23:18.882Z,16.70
2022-08-18T06:26:14.651Z,16.40
2022-08-18T06:28:57.876Z,16.60
2022-08-18T06:31:48.214Z,15.60
2022-08-18T06:34:34.220Z,16.00
2022-08-18T06:37:09.002Z,15.10
2022-08-18T06:39:50.414Z,16.80
2022-08-18T06:42:26.628Z,16.30
2022-08-18T06:45:12.997Z,13.80
2022-08-18T06:47:54.771Z,14.20
2022-08-18T06:50:46.788Z,14.10
2022-08-18T06:53:27.293Z,13.60
2022-08-18T06:55:56.393Z,13.60
2022-08-18T06:58:30.854Z,12.60
2022-08-18T07:01:05.097Z,17.50
2022-08-18T07:03:35.609Z,14.30
2022-08-18T07:06:06.925Z,12.20
2022-08-18T07:08:37.229Z,12.10
2022-08-18T07:11:30.269Z,11.70
2022-08-18T07:14:17.198Z,10.80
2022-08-18T07:16:58.364Z,9.90
2022-08-18T07:19:32.173Z,10.30
2022-08-18T07:22:13.066Z,10.50
2022-08-18T07:24:46.824Z,9.90
2022-08-18T07:27:20.982Z,9.30
2022-08-18T07:30:01.024Z,8.50
2022-08-18T07:32:35.697Z,8.90
2022-08-18T07:35:07.159Z,8.90
2022-08-18T07:37:53.986Z,9.30
2022-08-18T07:40:42.062Z,8.70
2022-08-18T07:43:33.088Z,8.60
2022-08-18T07:46:10.245Z,9.60
2022-08-18T07:48:39.904Z,9.80
2022-08-18T07:51:27.064Z,8.80
2022-08-18T07:54:50.931Z,9.00
2022-08-18T07:57:54.557Z,8.20
2022-08-18T08:03:35.896Z,8.00
2022-08-18T08:06:24.163Z,9.00
2022-08-18T08:08:51.846Z,9.10
2022-08-18T08:11:56.932Z,9.50
2022-08-18T08:14:26.686Z,8.80
2022-08-18T08:17:13.062Z,9.10
2022-08-18T08:20:02.571Z,8.30
2022-08-18T08:22:38.717Z,8.60
2022-08-18T08:25:42.938Z,8.70
2022-08-18T08:28:39.441Z,8.30
2022-08-18T08:31:35.874Z,8.90
2022-08-18T08:34:14.167Z,7.50
2022-08-18T08:36:46.133Z,7.30
2022-08-18T08:39:34.262Z,7.30
2022-08-18T08:42:30.176Z,8.00
2022-08-18T08:45:00.902Z,7.50
2022-08-18T08:47:38.978Z,8.00
2022-08-18T08:50:16.919Z,8.20
2022-08-18T08:52:51.240Z,7.50
2022-08-18T08:55:25.712Z,7.40
2022-08-18T08:58:08.857Z,7.10
2022-08-18T09:03:43.145Z,7.40
2022-08-18T09:06:37.464Z,6.90
2022-08-18T09:09:25.859Z,7.70
2022-08-18T09:12:27.391Z,6.80
2022-08-18T09:15:24.345Z,7.10
2022-08-18T09:18:03.077Z,7.20
2022-08-18T09:20:59.822Z,7.30
2022-08-18T09:23:34.435Z,6.20
2022-08-18T09:26:39.287Z,6.80
2022-08-18T09:29:23.680Z,6.40
2022-08-18T09:32:19.304Z,6.10
2022-08-18T09:34:47.036Z,5.80
2022-08-18T09:37:24.277Z,6.10
2022-08-18T09:41:01.089Z,5.00
2022-08-18T09:44:18.212Z,5.70
2022-08-18T09:46:54.053Z,5.20
2022-08-18T09:49:30.925Z,5.70
2022-08-18T09:52:20.807Z,5.10
2022-08-18T09:54:56.980Z,5.50
2022-08-18T09:57:31.614Z,4.50
2022-08-18T10:03:25.928Z,4.80
2022-08-18T10:06:18.067Z,5.20
2022-08-18T10:09:18.136Z,5.30
2022-08-18T10:12:42.102Z,5.20
2022-08-18T10:15:39.840Z,4.90
2022-08-18T10:18:37.732Z,4.80
2022-08-18T10:21:10.511Z,4.80
2022-08-18T10:26:56.821Z,5.20
2022-08-18T10:29:27.428Z,4.80
2022-08-18T10:31:55.693Z,4.80
2022-08-18T10:37:43.410Z,4.90
2022-08-18T10:40:14.194Z,5.20
2022-08-18T10:42:54.099Z,4.40
2022-08-18T10:45:30.602Z,4.70
2022-08-18T10:48:04.509Z,4.90
2022-08-18T10:50:42.341Z,4.80
2022-08-18T10:53:40.473Z,4.70
2022-08-18T10:56:11.710Z,5.00
2022-08-18T10:58:54.525Z,4.90
2022-08-18T11:01:39.513Z,4.40
2022-08-18T11:04:33.351Z,4.50
2022-08-18T11:07:19.797Z,4.90
2022-08-18T11:09:57.472Z,5.10
2022-08-18T11:12:51.752Z,5.20
2022-08-18T11:15:41.053Z,5.80
2022-08-18T11:18:23.783Z,5.00
2022-08-18T11:20:53.939Z,4.80
2022-08-18T11:23:21.678Z,5.60
2022-08-18T11:25:50.253Z,30.20
2022-08-18T11:28:29.278Z,17.90
2022-08-18T11:30:59.703Z,5.10
2022-08-18T11:33:28.153Z,5.30
2022-08-18T11:36:01.501Z,5.20
2022-08-18T11:38:31.738Z,5.30
2022-08-18T11:41:20.144Z,5.10
2022-08-18T11:43:50.584Z,4.90
2022-08-18T11:46:27.729Z,5.50
2022-08-18T11:48:59.303Z,5.60
2022-08-18T11:51:33.635Z,5.20
2022-08-18T11:54:11.418Z,5.30
2022-08-18T11:56:39.231Z,5.00
2022-08-18T11:59:53.287Z,15.20
2022-08-18T12:02:18.578Z,5.40
2022-08-18T12:04:53.003Z,5.50
2022-08-18T12:07:37.305Z,5.40
2022-08-18T12:10:26.143Z,5.10
2022-08-18T12:13:00.781Z,4.80
2022-08-18T12:15:44.032Z,5.20
2022-08-18T12:18:18.914Z,5.60
2022-08-18T12:20:58.965Z,4.90
2022-08-18T12:23:28.127Z,5.10
2022-08-18T12:29:01.587Z,5.10
2022-08-18T12:34:26.361Z,5.40
2022-08-18T12:36:57.242Z,5.60
2022-08-18T12:39:25.054Z,5.70
2022-08-18T12:41:53.215Z,5.70
2022-08-18T12:44:21.573Z,5.40
2022-08-18T12:46:50.528Z,5.10
2022-08-18T12:49:24.261Z,5.50
2022-08-18T12:51:55.626Z,5.40
2022-08-18T12:54:25.307Z,6.70
2022-08-18T12:56:56.258Z,6.30
2022-08-18T12:59:25.134Z,5.90
2022-08-18T13:04:40.818Z,5.50
2022-08-18T13:07:10.952Z,5.70
2022-08-18T13:09:52.839Z,5.60
2022-08-18T13:12:23.900Z,5.90
2022-08-18T13:14:55.032Z,5.80
2022-08-18T13:17:29.710Z,5.70
2022-08-18T13:20:09.322Z,6.10
2022-08-18T13:22:40.575Z,6.00
2022-08-18T13:25:12.536Z,5.90
2022-08-18T13:27:44.988Z,9.40
2022-08-18T13:30:31.144Z,6.60
2022-08-18T13:33:05.302Z,5.90
2022-08-18T13:35:38.322Z,6.20
2022-08-18T13:38:20.867Z,5.60
2022-08-18T13:40:55.075Z,5.70
2022-08-18T13:43:30.469Z,5.70
2022-08-18T13:45:58.432Z,5.70
2022-08-18T13:48:26.275Z,6.00
2022-08-18T13:50:56.752Z,5.20
2022-08-18T13:53:27.419Z,5.70
2022-08-18T13:55:59.716Z,5.80
2022-08-18T13:58:29.040Z,5.50
2022-08-18T14:01:39.783Z,6.00
2022-08-18T14:03:51.276Z,5.70
2022-08-18T14:06:24.296Z,6.30
2022-08-18T14:08:53.978Z,5.80
2022-08-18T14:11:32.970Z,6.00
2022-08-18T14:14:02.206Z,5.50
2022-08-18T14:16:31.416Z,6.10
2022-08-18T14:19:18.187Z,6.20
2022-08-18T14:22:12.778Z,6.00
2022-08-18T14:25:01.052Z,5.90
2022-08-18T14:27:35.818Z,5.80
2022-08-18T14:30:09.871Z,6.30
2022-08-18T14:32:48.835Z,6.60
2022-08-18T14:35:34.305Z,6.40
2022-08-18T14:38:09.782Z,6.40
2022-08-18T14:40:41.766Z,6.70
2022-08-18T14:43:14.083Z,6.80
2022-08-18T14:45:49.968Z,6.50
2022-08-18T14:48:22.372Z,6.50
2022-08-18T14:50:55.567Z,6.40
2022-08-18T14:53:26.963Z,6.60
2022-08-18T14:55:55.792Z,7.00
2022-08-18T14:58:27.877Z,7.20
2022-08-18T15:00:59.034Z,6.30
2022-08-18T15:03:31.446Z,6.50
2022-08-18T15:06:04.447Z,6.40
2022-08-18T15:08:35.669Z,7.20
2022-08-18T15:11:11.851Z,6.80
2022-08-18T15:13:45.294Z,6.10
2022-08-18T15:16:17.070Z,6.80
2022-08-18T15:18:46.801Z,7.00
2022-08-18T15:21:38.735Z,6.60
2022-08-18T15:24:27.097Z,7.00
2022-08-18T15:27:05.588Z,7.00
2022-08-18T15:29:34.849Z,6.50
2022-08-18T15:32:05.841Z,7.00
2022-08-18T15:34:46.653Z,7.10
2022-08-18T15:37:22.318Z,7.20
2022-08-18T15:40:21.810Z,6.50
2022-08-18T15:43:01.953Z,6.60
2022-08-18T15:45:35.528Z,7.20
2022-08-18T15:48:03.698Z,6.80
2022-08-18T15:50:32.107Z,7.20
2022-08-18T15:53:08.020Z,7.30
2022-08-18T15:55:39.212Z,6.80
2022-08-18T15:58:10.792Z,7.10
2022-08-18T16:00:43.702Z,6.50
2022-08-18T16:03:15.962Z,7.20
2022-08-18T16:05:53.518Z,6.70
2022-08-18T16:08:24.157Z,6.90
2022-08-18T16:10:54.018Z,6.90
2022-08-18T16:13:24.707Z,6.60
2022-08-18T16:15:52.480Z,6.90
2022-08-18T16:18:21.163Z,6.80
2022-08-18T16:20:50.688Z,6.80
2022-08-18T16:23:20.831Z,7.00
2022-08-18T16:25:48.581Z,6.50
2022-08-18T16:28:16.333Z,6.30
2022-08-18T16:30:46.921Z,6.60
2022-08-18T16:33:14.625Z,6.10
2022-08-18T16:35:45.382Z,6.40
2022-08-18T16:38:13.940Z,6.60
2022-08-18T16:40:41.964Z,6.40
2022-08-18T16:43:11.702Z,6.60
2022-08-18T16:45:42.927Z,6.80
2022-08-18T16:48:14.247Z,6.90
2022-08-18T16:50:45.361Z,6.50
2022-08-18T16:53:13.131Z,6.50
2022-08-18T16:55:43.289Z,6.90
2022-08-18T16:58:30.496Z,6.60
2022-08-18T17:01:19.066Z,6.60
2022-08-18T17:04:14.745Z,6.70
2022-08-18T17:06:49.418Z,6.50
2022-08-18T17:09:18.492Z,6.70
2022-08-18T17:11:51.777Z,6.90
2022-08-18T17:14:26.333Z,6.50
2022-08-18T17:16:55.956Z,6.50
2022-08-18T17:19:27.400Z,7.10
2022-08-18T17:21:55.208Z,6.70
2022-08-18T17:24:31.462Z,6.50
2022-08-18T17:27:26.034Z,7.20
2022-08-18T17:30:04.270Z,6.70
2022-08-18T17:32:56.617Z,6.20
2022-08-18T17:35:35.011Z,6.80
2022-08-18T17:38:09.121Z,6.70
2022-08-18T17:40:45.089Z,6.30
2022-08-18T17:43:17.103Z,6.30
2022-08-18T17:45:52.864Z,6.60
2022-08-18T17:48:43.250Z,6.90
2022-08-18T17:51:37.547Z,6.90
2022-08-18T17:54:36.450Z,7.00
2022-08-18T17:57:12.092Z,7.20
2022-08-18T18:00:13.046Z,7.00
2022-08-18T18:02:42.712Z,6.80
2022-08-18T18:05:14.200Z,6.50
2022-08-18T18:07:45.386Z,6.70
2022-08-18T18:10:25.433Z,6.90
2022-08-18T18:13:25.716Z,7.00
2022-08-18T18:15:57.021Z,7.50
2022-08-18T18:18:45.302Z,7.00
2022-08-18T18:21:23.115Z,7.30
2022-08-18T18:24:14.228Z,7.70
2022-08-18T18:26:46.049Z,8.00
2022-08-18T18:29:38.343Z,7.40
2022-08-18T18:32:24.457Z,8.10
2022-08-18T18:35:09.655Z,11.70
2022-08-18T18:38:00.128Z,14.50
2022-08-18T18:40:41.333Z,11.20
2022-08-18T18:43:46.663Z,7.70
2022-08-18T18:46:19.494Z,8.20
2022-08-18T18:48:53.673Z,11.00
2022-08-18T18:51:33.605Z,21.30
2022-08-18T18:54:26.169Z,10.00
2022-08-18T18:56:57.141Z,8.40
2022-08-18T18:59:49.955Z,8.20
2022-08-18T19:02:36.384Z,8.20
2022-08-18T19:05:13.245Z,8.20
2022-08-18T19:07:59.072Z,8.90
2022-08-18T19:10:57.764Z,8.10
2022-08-18T19:13:42.273Z,8.00
2022-08-18T19:16:23.279Z,8.00
2022-08-18T19:18:57.757Z,8.20
2022-08-18T19:22:04.493Z,8.30
2022-08-18T19:24:40.489Z,8.40
2022-08-18T19:27:25.325Z,9.20
2022-08-18T19:29:58.959Z,9.00
2022-08-18T19:32:35.714Z,8.70
2022-08-18T19:35:11.969Z,8.80
2022-08-18T19:38:04.802Z,8.30
2022-08-18T19:40:47.339Z,8.20
2022-08-18T19:43:40.870Z,9.30
2022-08-18T19:46:34.793Z,8.40
2022-08-18T19:49:26.260Z,8.40
2022-08-18T19:51:59.479Z,9.50
2022-08-18T19:54:33.142Z,9.10
2022-08-18T19:57:12.694Z,9.30
2022-08-18T19:59:51.028Z,8.70
2022-08-18T20:03:04.619Z,8.40
2022-08-18T20:05:40.446Z,8.40
2022-08-18T20:08:28.492Z,8.40
2022-08-18T20:11:15.229Z,8.20
2022-08-18T20:13:45.759Z,8.60
2022-08-18T20:16:28.622Z,8.10
2022-08-18T20:19:48.304Z,8.10
2022-08-18T20:22:24.594Z,8.10
2022-08-18T20:25:05.822Z,7.60
2022-08-18T20:27:40.314Z,7.80
2022-08-18T20:30:08.775Z,7.90
2022-08-18T20:32:36.546Z,7.50
2022-08-18T20:35:21.750Z,7.90
2022-08-18T20:37:49.640Z,8.40
2022-08-18T20:40:42.307Z,7.90
2022-08-18T20:43:33.111Z,7.30
2022-08-18T20:46:36.227Z,7.90
2022-08-18T20:49:24.097Z,7.60
2022-08-18T20:52:06.415Z,7.60
2022-08-18T20:54:37.964Z,8.20
2022-08-18T20:57:12.210Z,8.10
2022-08-18T20:59:52.846Z,8.50
2022-08-18T21:02:35.531Z,7.70
2022-08-18T21:05:05.045Z,11.00
2022-08-18T21:07:37.974Z,9.70
2022-08-18T21:10:23.414Z,8.70
2022-08-18T21:12:54.968Z,8.30
2022-08-18T21:15:27.345Z,8.60
2022-08-18T21:18:05.019Z,7.90
2022-08-18T21:20:34.291Z,7.70
2022-08-18T21:23:11.359Z,8.00
2022-08-18T21:25:59.185Z,7.70
2022-08-18T21:28:31.478Z,8.40
2022-08-18T21:31:41.968Z,8.00
2022-08-18T21:34:00.124Z,7.60
2022-08-18T21:36:32.136Z,8.10
2022-08-18T21:39:17.178Z,7.40
2022-08-18T21:41:48.396Z,8.50
2022-08-18T21:44:42.786Z,7.80
2022-08-18T21:47:34.320Z,8.40
2022-08-18T21:50:08.526Z,8.00
2022-08-18T21:52:52.221Z,8.00
2022-08-18T21:55:43.452Z,7.70
2022-08-18T21:58:15.735Z,8.20
2022-08-18T22:01:07.821Z,8.60
2022-08-18T22:03:47.816Z,7.90
2022-08-18T22:06:24.593Z,8.00
2022-08-18T22:09:48.640Z,7.40
2022-08-18T22:12:51.988Z,8.30
2022-08-18T22:15:40.361Z,8.00
2022-08-18T22:18:28.682Z,8.10
2022-08-18T22:20:58.902Z,8.30
2022-08-18T22:23:58.798Z,8.00
2022-08-18T22:26:29.799Z,7.80
2022-08-18T22:29:06.571Z,7.80
2022-08-18T22:31:37.796Z,8.30
2022-08-18T22:34:11.279Z,7.10
2022-08-18T22:36:45.970Z,7.60
2022-08-18T22:39:18.490Z,8.30
2022-08-18T22:41:46.319Z,7.60
2022-08-18T22:44:14.160Z,8.50
2022-08-18T22:46:41.944Z,8.30
2022-08-18T22:49:10.550Z,8.20
2022-08-18T22:51:38.849Z,8.40
2022-08-18T22:54:09.860Z,7.70
2022-08-18T22:56:38.664Z,8.30
2022-08-18T22:59:12.166Z,7.80
2022-08-18T23:01:46.182Z,8.40
2022-08-18T23:04:16.120Z,7.90
2022-08-18T23:06:51.617Z,7.70
2022-08-18T23:09:28.502Z,8.40
2022-08-18T23:12:23.892Z,8.00
2022-08-18T23:14:51.709Z,8.30
2022-08-18T23:17:24.105Z,8.20
2022-08-18T23:19:52.073Z,7.70
2022-08-18T23:22:20.173Z,7.70
2022-08-18T23:24:48.704Z,8.80
2022-08-18T23:27:16.930Z,8.50
2022-08-18T23:29:44.735Z,8.60
2022-08-18T23:32:13.335Z,7.90
2022-08-18T23:34:41.223Z,8.00
2022-08-18T23:37:09.837Z,7.70
2022-08-18T23:39:39.494Z,8.40
2022-08-18T23:42:12.862Z,9.30
2022-08-18T23:44:40.809Z,8.30
2022-08-18T23:47:08.567Z,8.20
2022-08-18T23:49:38.814Z,8.40
2022-08-18T23:52:07.285Z,8.60
2022-08-18T23:54:35.607Z,9.00
2022-08-18T23:57:03.478Z,8.00
2022-08-18T23:59:31.444Z,9.10
